Terminal Aerodrome Forecast
Issued by NWS Quad Cities IA IL

Home | Current Version | Previous Version | Text Only | Print | Product List | Glossary On
Versions: 1 2 3 4 5 6 7 8 9 10 11 12 13 14 15 16 17 18 19 20 21 22
000
FTUS43 KDVN 190400 AAA
TAFDBQ
TAF AMD
KDBQ 190435Z 1905/1924 21010KT P6SM BKN150
     FM190600 22005KT P6SM VCTS BKN080CB
      TEMPO 1906/1908 5SM -TSRA BR BKN050CB
     FM191000 25006KT 4SM BR SCT050 SCT250
     FM191400 28011KT P6SM SCT250
      AMD NOT SKED=

USA.gov is the U.S. government's official web portal to all federal, state and local government web resources and services.